createdAt,value
2022-08-27T00:00:25.122Z,99782.50
2022-08-27T00:03:11.544Z,99783.20
2022-08-27T00:05:44.668Z,99777.38
2022-08-27T00:08:17.046Z,99773.63
2022-08-27T00:10:49.247Z,99768.44
2022-08-27T00:13:21.439Z,99764.52
2022-08-27T00:15:53.674Z,99762.40
2022-08-27T00:18:27.157Z,99755.86
2022-08-27T00:20:59.292Z,99755.66
2022-08-27T00:23:31.911Z,99750.23
2022-08-27T00:26:04.556Z,99748.25
2022-08-27T00:28:38.209Z,99750.08
2022-08-27T00:31:12.590Z,99748.31
2022-08-27T00:33:45.072Z,99746.40
2022-08-27T00:36:17.748Z,99745.85
2022-08-27T00:38:53.871Z,99745.39
2022-08-27T00:41:26.423Z,99747.94
2022-08-27T00:44:00.385Z,99750.78
2022-08-27T00:46:43.435Z,99755.10
2022-08-27T00:49:20.405Z,99754.21
2022-08-27T00:51:58.677Z,99756.70
2022-08-27T00:54:31.629Z,99754.08
2022-08-27T00:57:05.017Z,99752.39
2022-08-27T00:59:37.880Z,99751.36
2022-08-27T01:02:26.309Z,99747.50
2022-08-27T01:05:04.220Z,99748.67
2022-08-27T01:07:41.229Z,99749.21
2022-08-27T01:10:17.152Z,99743.95
2022-08-27T01:12:53.391Z,99742.21
2022-08-27T01:15:29.135Z,99741.04
2022-08-27T01:18:04.250Z,99740.53
2022-08-27T01:20:43.524Z,99739.83
2022-08-27T01:23:23.828Z,99740.37
2022-08-27T01:25:56.093Z,99740.51
2022-08-27T01:28:35.740Z,99740.80
2022-08-27T01:31:11.797Z,99741.27
2022-08-27T01:33:54.367Z,99739.63
2022-08-27T01:36:27.416Z,99738.50
2022-08-27T01:38:59.632Z,99733.48
2022-08-27T01:41:33.063Z,99733.80
2022-08-27T01:44:05.511Z,99732.51
2022-08-27T01:46:37.916Z,99733.81
2022-08-27T01:49:12.505Z,99733.37
2022-08-27T01:51:44.677Z,99734.77
2022-08-27T01:54:16.834Z,99730.30
2022-08-27T01:56:48.935Z,99737.55
2022-08-27T01:59:21.069Z,99737.89
2022-08-27T02:01:55.973Z,99736.55
2022-08-27T02:04:28.202Z,99733.75
2022-08-27T02:07:00.627Z,99732.45
2022-08-27T02:09:33.422Z,99728.37
2022-08-27T02:12:06.479Z,99730.32
2022-08-27T02:14:38.658Z,99726.80
2022-08-27T02:17:12.577Z,99726.70
2022-08-27T02:19:45.471Z,99723.97
2022-08-27T02:22:17.611Z,99725.36
2022-08-27T02:24:49.824Z,99722.42
2022-08-27T02:27:22.696Z,99720.69
2022-08-27T02:29:55.634Z,99718.64
2022-08-27T02:32:31.856Z,99718.48
2022-08-27T02:35:03.986Z,99725.80
2022-08-27T02:37:37.738Z,99730.15
2022-08-27T02:40:14.028Z,99735.90
2022-08-27T02:42:46.812Z,99741.61
2022-08-27T02:45:20.963Z,99738.98
2022-08-27T02:47:54.157Z,99735.77
2022-08-27T02:50:27.356Z,99740.69
2022-08-27T02:53:00.214Z,99738.41
2022-08-27T02:55:32.535Z,99735.85
2022-08-27T02:58:05.729Z,99738.72
2022-08-27T03:00:38.153Z,99737.29
2022-08-27T03:03:11.116Z,99736.11
2022-08-27T03:05:43.364Z,99735.09
2022-08-27T03:08:15.514Z,99729.43
2022-08-27T03:10:47.784Z,99731.50
2022-08-27T03:13:20.174Z,99728.11
2022-08-27T03:15:52.291Z,99728.80
2022-08-27T03:18:25.686Z,99731.91
2022-08-27T03:20:59.500Z,99729.11
2022-08-27T03:23:34.235Z,99727.10
2022-08-27T03:26:11.801Z,99725.52
2022-08-27T03:28:44.185Z,99729.30
2022-08-27T03:31:27.110Z,99732.81
2022-08-27T03:34:02.611Z,99731.41
2022-08-27T03:36:35.056Z,99727.73
2022-08-27T03:39:07.211Z,99725.00
2022-08-27T03:41:45.558Z,99724.75
2022-08-27T03:44:27.814Z,99724.20
2022-08-27T03:47:00.213Z,99725.39
2022-08-27T03:49:32.930Z,99726.09
2022-08-27T03:52:05.452Z,99725.40
2022-08-27T03:54:39.387Z,99728.21
2022-08-27T03:57:11.997Z,99727.46
2022-08-27T03:59:44.135Z,99725.27
2022-08-27T04:02:16.674Z,99723.94
2022-08-27T04:04:48.834Z,99726.55
2022-08-27T04:07:21.341Z,99725.10
2022-08-27T04:09:53.780Z,99725.57
2022-08-27T04:12:26.671Z,99719.95
2022-08-27T04:14:58.796Z,99723.58
2022-08-27T04:17:31.791Z,99722.79
2022-08-27T04:20:24.978Z,99725.71
2022-08-27T04:22:56.567Z,99722.95
2022-08-27T04:25:28.917Z,99725.61
2022-08-27T04:28:01.071Z,99721.73
2022-08-27T04:30:33.435Z,99721.23
2022-08-27T04:33:05.573Z,99722.33
2022-08-27T04:35:38.023Z,99722.05
2022-08-27T04:38:10.751Z,99722.74
2022-08-27T04:40:56.927Z,99726.45
2022-08-27T04:43:29.825Z,99727.48
2022-08-27T04:46:02.002Z,99727.04
2022-08-27T04:48:34.610Z,99726.45
2022-08-27T04:51:12.522Z,99721.15
2022-08-27T04:53:46.857Z,99717.48
2022-08-27T04:56:21.916Z,99718.61
2022-08-27T04:58:55.427Z,99714.30
2022-08-27T05:01:29.960Z,99713.70
2022-08-27T05:04:02.353Z,99715.67
2022-08-27T05:06:35.375Z,99715.77
2022-08-27T05:09:08.417Z,99717.63
2022-08-27T05:11:40.737Z,99714.66
2022-08-27T05:14:17.409Z,99714.09
2022-08-27T05:16:49.606Z,99712.55
2022-08-27T05:19:22.074Z,99712.59
2022-08-27T05:21:55.573Z,99707.74
2022-08-27T05:24:28.051Z,99703.22
2022-08-27T05:27:00.179Z,99704.63
2022-08-27T05:29:33.539Z,99701.26
2022-08-27T05:32:06.374Z,99699.16
2022-08-27T05:34:38.591Z,99699.55
2022-08-27T05:37:11.380Z,99693.91
2022-08-27T05:39:44.662Z,99703.12
2022-08-27T05:42:16.817Z,99708.56
2022-08-27T05:44:48.904Z,99703.23
2022-08-27T05:47:21.123Z,99706.71
2022-08-27T05:49:55.006Z,99705.88
2022-08-27T05:52:27.491Z,99703.59
2022-08-27T05:54:59.830Z,99704.02
2022-08-27T05:57:32.156Z,99703.86
2022-08-27T06:00:18.747Z,99705.73
2022-08-27T06:02:51.964Z,99702.88
2022-08-27T06:05:24.770Z,99701.39
2022-08-27T06:07:57.057Z,99698.83
2022-08-27T06:10:29.696Z,99693.16
2022-08-27T06:13:03.670Z,99695.08
2022-08-27T06:15:37.469Z,99695.45
2022-08-27T06:18:10.469Z,99686.73
2022-08-27T06:20:42.824Z,99690.41
2022-08-27T06:23:15.627Z,99693.40
2022-08-27T06:25:48.483Z,99693.45
2022-08-27T06:28:23.723Z,99697.52
2022-08-27T06:30:55.924Z,99696.48
2022-08-27T06:33:28.084Z,99703.80
2022-08-27T06:36:01.702Z,99705.58
2022-08-27T06:38:34.348Z,99704.95
2022-08-27T06:41:16.227Z,99705.03
2022-08-27T06:43:56.835Z,99701.91
2022-08-27T06:46:31.297Z,99706.14
2022-08-27T06:49:03.916Z,99702.06
2022-08-27T06:51:38.318Z,99704.53
2022-08-27T06:54:12.688Z,99700.38
2022-08-27T06:56:45.734Z,99699.05
2022-08-27T06:59:19.963Z,99705.07
2022-08-27T07:01:52.986Z,99703.98
2022-08-27T07:04:32.121Z,99706.40
2022-08-27T07:07:08.316Z,99701.64
2022-08-27T07:09:40.740Z,99704.50
2022-08-27T07:12:13.072Z,99704.98
2022-08-27T07:14:45.284Z,99698.25
2022-08-27T07:17:17.896Z,99700.04
2022-08-27T07:19:50.014Z,99696.59
2022-08-27T07:22:22.221Z,99696.05
2022-08-27T07:24:54.621Z,99693.62
2022-08-27T07:27:26.754Z,99689.17
2022-08-27T07:29:59.378Z,99691.39
2022-08-27T07:32:34.047Z,99690.26
2022-08-27T07:35:09.603Z,99690.40
2022-08-27T07:37:43.361Z,99690.39
2022-08-27T07:40:17.375Z,99694.05
2022-08-27T07:43:06.891Z,99692.52
2022-08-27T07:45:47.736Z,99694.15
2022-08-27T07:48:20.026Z,99691.05
2022-08-27T07:50:52.796Z,99688.77
2022-08-27T07:53:25.104Z,99687.80
2022-08-27T07:55:57.704Z,99690.42
2022-08-27T07:58:30.285Z,99688.21
2022-08-27T08:01:03.223Z,99687.63
2022-08-27T08:03:35.518Z,99682.98
2022-08-27T08:06:09.725Z,99684.41
2022-08-27T08:08:43.888Z,99684.54
2022-08-27T08:11:18.500Z,99687.33
2022-08-27T08:13:49.491Z,99685.84
2022-08-27T08:16:27.270Z,99688.19
2022-08-27T08:19:03.348Z,99687.27
2022-08-27T08:21:35.735Z,99690.27
2022-08-27T08:24:08.756Z,99687.76
2022-08-27T08:26:42.209Z,99688.56
2022-08-27T08:29:18.158Z,99691.77
2022-08-27T08:31:51.277Z,99693.39
2022-08-27T08:34:23.632Z,99691.80
2022-08-27T08:36:55.983Z,99696.98
2022-08-27T08:39:28.274Z,99691.86
2022-08-27T08:42:03.297Z,99693.60
2022-08-27T08:44:38.061Z,99691.73
2022-08-27T08:47:15.750Z,99700.70
2022-08-27T08:49:56.494Z,99698.46
2022-08-27T08:52:44.359Z,99696.66
2022-08-27T08:55:25.294Z,99697.45
2022-08-27T08:58:08.880Z,99694.39
2022-08-27T09:00:43.781Z,99696.92
2022-08-27T09:03:18.197Z,99695.98
2022-08-27T09:05:56.236Z,99692.25
2022-08-27T09:08:38.866Z,99692.41
2022-08-27T09:11:17.296Z,99696.88
2022-08-27T09:13:54.595Z,99694.41
2022-08-27T09:16:26.975Z,99694.85
2022-08-27T09:18:59.729Z,99694.23
2022-08-27T09:21:42.105Z,99690.17
2022-08-27T09:24:20.493Z,99688.39
2022-08-27T09:26:52.699Z,99687.41
2022-08-27T09:29:30.360Z,99682.38
2022-08-27T09:32:06.480Z,99686.37
2022-08-27T09:34:40.568Z,99683.54
2022-08-27T09:37:16.714Z,99682.63
2022-08-27T09:39:53.689Z,99681.08
2022-08-27T09:42:35.344Z,99680.98
2022-08-27T09:45:13.938Z,99675.80
2022-08-27T09:47:48.939Z,99674.50
2022-08-27T09:50:25.597Z,99675.97
2022-08-27T09:52:59.776Z,99670.29
2022-08-27T09:55:44.750Z,99671.65
2022-08-27T09:58:23.351Z,99667.56
2022-08-27T10:01:04.976Z,99664.25
2022-08-27T10:03:37.180Z,99667.23
2022-08-27T10:06:11.230Z,99667.34
2022-08-27T10:08:47.545Z,99666.38
2022-08-27T10:11:24.845Z,99666.85
2022-08-27T10:14:06.160Z,99665.29
2022-08-27T10:16:55.552Z,99660.75
2022-08-27T10:19:44.273Z,99660.45
2022-08-27T10:22:24.261Z,99661.45
2022-08-27T10:25:10.643Z,99652.08
2022-08-27T10:27:52.842Z,99653.77
2022-08-27T10:30:33.042Z,99653.36
2022-08-27T10:33:11.915Z,99649.77
2022-08-27T10:35:54.996Z,99649.59
2022-08-27T10:38:42.385Z,99657.15
2022-08-27T10:41:22.202Z,99662.64
2022-08-27T10:44:18.087Z,99652.30
2022-08-27T10:47:11.926Z,99645.48
2022-08-27T10:49:52.632Z,99647.89
2022-08-27T10:52:31.222Z,99644.16
2022-08-27T10:55:10.595Z,99639.43
2022-08-27T10:58:03.263Z,99642.73
2022-08-27T11:00:44.957Z,99641.02
2022-08-27T11:03:23.850Z,99640.52
2022-08-27T11:05:57.344Z,99638.79
2022-08-27T11:08:37.709Z,99632.87
2022-08-27T11:14:14.969Z,99637.73
2022-08-27T11:16:51.810Z,99638.58
2022-08-27T11:19:30.254Z,99641.23
2022-08-27T11:22:12.097Z,99641.96
2022-08-27T11:24:51.231Z,99637.52
2022-08-27T11:27:38.820Z,99635.48
2022-08-27T11:30:20.286Z,99635.69
2022-08-27T11:33:02.044Z,99631.20
2022-08-27T11:35:43.519Z,99628.43
2022-08-27T11:38:48.375Z,99632.92
2022-08-27T11:41:48.860Z,99637.85
2022-08-27T11:44:24.600Z,99640.43
2022-08-27T11:47:09.596Z,99631.48
2022-08-27T11:49:47.343Z,99628.55
2022-08-27T11:52:29.361Z,99632.15
2022-08-27T11:55:15.939Z,99634.13
2022-08-27T11:57:48.848Z,99629.82
2022-08-27T12:00:30.599Z,99631.47
2022-08-27T12:03:05.667Z,99633.66
2022-08-27T12:05:45.938Z,99631.33
2022-08-27T12:08:31.742Z,99629.39
2022-08-27T12:11:19.580Z,99627.08
2022-08-27T12:14:01.250Z,99627.92
2022-08-27T12:16:44.534Z,99629.86
2022-08-27T12:19:31.133Z,99626.95
2022-08-27T12:22:19.664Z,99623.60
2022-08-27T12:24:55.697Z,99625.44
2022-08-27T12:27:36.135Z,99621.70
2022-08-27T12:30:24.187Z,99614.49
2022-08-27T12:32:57.978Z,99612.96
2022-08-27T12:35:34.343Z,99612.31
2022-08-27T12:38:17.786Z,99613.05
2022-08-27T12:40:53.822Z,99614.05
2022-08-27T12:43:28.324Z,99610.91
2022-08-27T12:46:03.141Z,99606.02
2022-08-27T12:48:42.274Z,99609.83
2022-08-27T12:51:20.046Z,99610.30
2022-08-27T12:53:57.697Z,99607.19
2022-08-27T12:56:40.954Z,99605.90
2022-08-27T12:59:38.022Z,99606.48
2022-08-27T13:02:26.169Z,99610.11
2022-08-27T13:04:59.084Z,99607.52
2022-08-27T13:07:38.031Z,99604.11
2022-08-27T13:10:18.303Z,99604.40
2022-08-27T13:13:08.950Z,99605.19
2022-08-27T13:15:45.215Z,99600.86
2022-08-27T13:18:16.288Z,99603.44
2022-08-27T13:20:53.139Z,99601.27
2022-08-27T13:23:28.237Z,99603.42
2022-08-27T13:26:07.785Z,99608.70
2022-08-27T13:28:43.278Z,99608.13
2022-08-27T13:31:16.086Z,99604.34
2022-08-27T13:33:50.999Z,99600.94
2022-08-27T13:36:32.363Z,99603.52
2022-08-27T13:39:07.137Z,99605.17
2022-08-27T13:41:41.173Z,99605.06
2022-08-27T13:44:16.895Z,99603.02
2022-08-27T13:46:53.801Z,99599.30
2022-08-27T13:49:29.243Z,99601.48
2022-08-27T13:52:11.434Z,99598.70
2022-08-27T13:54:47.584Z,99597.79
2022-08-27T13:57:30.575Z,99604.16
2022-08-27T14:00:17.118Z,99600.84
2022-08-27T14:02:56.355Z,99598.79
2022-08-27T14:05:34.166Z,99598.47
2022-08-27T14:08:17.840Z,99599.16
2022-08-27T14:11:00.314Z,99595.98
2022-08-27T14:13:41.797Z,99590.59
2022-08-27T14:16:29.294Z,99590.61
2022-08-27T14:19:09.858Z,99589.49
2022-08-27T14:21:43.600Z,99588.44
2022-08-27T14:24:16.262Z,99588.11
2022-08-27T14:26:52.266Z,99587.44
2022-08-27T14:29:25.039Z,99584.69
2022-08-27T14:31:57.200Z,99577.89
2022-08-27T14:34:29.412Z,99577.51
2022-08-27T14:37:02.248Z,99577.51
2022-08-27T14:39:34.730Z,99579.31
2022-08-27T14:42:08.566Z,99581.25
2022-08-27T14:44:41.800Z,99580.09
2022-08-27T14:47:16.293Z,99581.05
2022-08-27T14:49:49.415Z,99576.27
2022-08-27T14:52:21.675Z,99574.33
2022-08-27T14:54:53.880Z,99576.38
2022-08-27T14:57:26.067Z,99575.20
2022-08-27T14:59:58.370Z,99577.85
2022-08-27T15:02:30.607Z,99574.29
2022-08-27T15:05:11.833Z,99574.79
2022-08-27T15:07:47.094Z,99573.98
2022-08-27T15:10:20.585Z,99576.33
2022-08-27T15:12:54.572Z,99575.33
2022-08-27T15:15:27.553Z,99576.48
2022-08-27T15:17:59.823Z,99575.69
2022-08-27T15:20:32.110Z,99574.20
2022-08-27T15:23:04.839Z,99576.79
2022-08-27T15:25:36.966Z,99577.95
2022-08-27T15:28:09.672Z,99576.90
2022-08-27T15:30:43.358Z,99577.45
2022-08-27T15:33:15.902Z,99579.00
2022-08-27T15:35:48.071Z,99577.05
2022-08-27T15:38:20.184Z,99573.17
2022-08-27T15:40:52.719Z,99570.23
2022-08-27T15:43:26.571Z,99568.71
2022-08-27T15:45:59.763Z,99570.06
2022-08-27T15:48:32.277Z,99570.14
2022-08-27T15:51:10.143Z,99567.86
2022-08-27T15:53:43.712Z,99567.20
2022-08-27T15:56:15.879Z,99564.48
2022-08-27T15:58:48.377Z,99563.42
2022-08-27T16:01:26.700Z,99567.45
2022-08-27T16:04:00.608Z,99571.52
2022-08-27T16:06:35.086Z,99574.06
2022-08-27T16:09:07.775Z,99574.73
2022-08-27T16:11:41.010Z,99569.14
2022-08-27T16:14:13.237Z,99568.93
2022-08-27T16:16:50.101Z,99569.55
2022-08-27T16:19:22.746Z,99568.59
2022-08-27T16:21:55.743Z,99566.10
2022-08-27T16:24:28.057Z,99569.02
2022-08-27T16:27:00.645Z,99570.52
2022-08-27T16:29:32.686Z,99570.77
2022-08-27T16:32:05.717Z,99568.64
2022-08-27T16:34:38.220Z,99570.06
2022-08-27T16:37:10.288Z,99570.65
2022-08-27T16:39:42.431Z,99571.92
2022-08-27T16:42:15.158Z,99573.27
2022-08-27T16:44:47.325Z,99571.55
2022-08-27T16:47:19.800Z,99574.66
2022-08-27T16:50:09.594Z,99574.86
2022-08-27T16:52:57.101Z,99571.59
2022-08-27T16:55:29.484Z,99571.64
2022-08-27T16:58:01.632Z,99571.14
2022-08-27T17:00:33.889Z,99567.73
2022-08-27T17:03:06.511Z,99569.69
2022-08-27T17:05:40.960Z,99573.08
2022-08-27T17:08:17.165Z,99571.66
2022-08-27T17:10:53.040Z,99571.00
2022-08-27T17:13:29.404Z,99576.75
2022-08-27T17:16:02.225Z,99578.14
2022-08-27T17:18:35.559Z,99582.45
2022-08-27T17:21:08.241Z,99584.12
2022-08-27T17:23:42.232Z,99590.02
2022-08-27T17:26:15.973Z,99592.13
2022-08-27T17:28:48.783Z,99596.39
2022-08-27T17:31:27.853Z,99598.54
2022-08-27T17:34:01.977Z,99601.73
2022-08-27T17:36:36.776Z,99605.23
2022-08-27T17:39:09.372Z,99603.23
2022-08-27T17:41:43.587Z,99605.48
2022-08-27T17:44:23.993Z,99606.92
2022-08-27T17:46:57.988Z,99605.20
2022-08-27T17:49:31.504Z,99610.81
2022-08-27T17:52:08.803Z,99613.81
2022-08-27T17:54:43.800Z,99616.73
2022-08-27T17:57:19.852Z,99615.52
2022-08-27T17:59:53.543Z,99618.01
2022-08-27T18:02:30.075Z,99620.48
2022-08-27T18:05:02.632Z,99621.39
2022-08-27T18:07:39.622Z,99623.50
2022-08-27T18:10:14.771Z,99629.06
2022-08-27T18:12:47.636Z,99630.25
2022-08-27T18:15:23.108Z,99631.46
2022-08-27T18:17:56.086Z,99634.23
2022-08-27T18:20:30.866Z,99631.09
2022-08-27T18:23:04.467Z,99635.42
2022-08-27T18:25:38.725Z,99633.63
2022-08-27T18:28:13.342Z,99635.56
2022-08-27T18:30:46.832Z,99634.97
2022-08-27T18:33:19.570Z,99639.36
2022-08-27T18:35:51.978Z,99643.17
2022-08-27T18:38:24.245Z,99642.63
2022-08-27T18:40:57.884Z,99642.27
2022-08-27T18:43:34.986Z,99645.70
2022-08-27T18:46:05.693Z,99651.02
2022-08-27T18:48:38.424Z,99652.40
2022-08-27T18:51:14.780Z,99664.32
2022-08-27T18:53:48.196Z,99664.40
2022-08-27T18:56:22.005Z,99669.02
2022-08-27T18:58:54.113Z,99672.56
2022-08-27T19:01:28.512Z,99672.08
2022-08-27T19:04:00.818Z,99674.28
2022-08-27T19:06:33.109Z,99677.42
2022-08-27T19:09:05.735Z,99678.31
2022-08-27T19:11:37.947Z,99680.47
2022-08-27T19:14:10.165Z,99682.98
2022-08-27T19:16:47.279Z,99685.59
2022-08-27T19:19:20.121Z,99685.85
2022-08-27T19:21:54.061Z,99687.95
2022-08-27T19:24:26.567Z,99691.02
2022-08-27T19:26:58.806Z,99690.83
2022-08-27T19:29:30.914Z,99689.13
2022-08-27T19:32:03.494Z,99689.56
2022-08-27T19:34:35.693Z,99689.79
2022-08-27T19:37:09.772Z,99687.48
2022-08-27T19:39:41.871Z,99687.90
2022-08-27T19:42:14.039Z,99687.48
2022-08-27T19:44:46.198Z,99685.66
2022-08-27T19:47:25.342Z,99685.23
2022-08-27T19:49:58.011Z,99686.17
2022-08-27T19:52:30.495Z,99689.73
2022-08-27T19:55:13.549Z,99687.55
2022-08-27T19:57:47.484Z,99691.40
2022-08-27T20:00:24.815Z,99691.58
2022-08-27T20:03:00.560Z,99696.70
2022-08-27T20:05:32.730Z,99692.88
2022-08-27T20:08:06.068Z,99697.57
2022-08-27T20:10:39.141Z,99695.41
2022-08-27T20:13:11.408Z,99698.21
2022-08-27T20:15:43.722Z,99699.33
2022-08-27T20:18:18.775Z,99699.68
2022-08-27T20:20:51.072Z,99697.86
2022-08-27T20:23:25.197Z,99699.52
2022-08-27T20:26:01.176Z,99697.45
2022-08-27T20:28:39.341Z,99696.48
2022-08-27T20:31:11.812Z,99697.44
2022-08-27T20:33:44.062Z,99695.73
2022-08-27T20:36:16.290Z,99700.79
2022-08-27T20:38:48.471Z,99698.88
2022-08-27T20:41:20.628Z,99699.70
2022-08-27T20:43:52.867Z,99698.00
2022-08-27T20:46:27.839Z,99701.07
2022-08-27T20:48:59.865Z,99700.40
2022-08-27T20:51:32.065Z,99701.66
2022-08-27T20:54:24.247Z,99698.05
2022-08-27T20:56:56.344Z,99696.73
2022-08-27T20:59:46.693Z,99695.77
2022-08-27T21:02:24.255Z,99694.81
2022-08-27T21:04:57.706Z,99696.72
2022-08-27T21:07:29.939Z,99697.29
2022-08-27T21:10:02.015Z,99697.46
2022-08-27T21:12:34.452Z,99699.86
2022-08-27T21:15:09.493Z,99693.88
2022-08-27T21:17:41.634Z,99692.84
2022-08-27T21:20:14.981Z,99689.88
2022-08-27T21:22:47.154Z,99692.31
2022-08-27T21:25:19.326Z,99689.12
2022-08-27T21:27:51.425Z,99685.20
2022-08-27T21:30:24.741Z,99684.42
2022-08-27T21:32:57.377Z,99683.86
2022-08-27T21:35:31.988Z,99686.45
2022-08-27T21:38:04.749Z,99681.34
2022-08-27T21:40:36.973Z,99683.33
2022-08-27T21:43:09.239Z,99682.70
2022-08-27T21:45:43.045Z,99687.54
2022-08-27T21:48:15.106Z,99683.92
2022-08-27T21:50:47.992Z,99681.89
2022-08-27T21:53:21.936Z,99680.67
2022-08-27T21:55:56.344Z,99684.01
2022-08-27T21:58:28.516Z,99682.77
2022-08-27T22:01:02.012Z,99681.41
2022-08-27T22:03:36.004Z,99682.37
2022-08-27T22:06:11.393Z,99682.27
2022-08-27T22:08:43.868Z,99685.02
2022-08-27T22:11:20.605Z,99683.65
2022-08-27T22:13:57.700Z,99678.20
2022-08-27T22:16:30.346Z,99672.67
2022-08-27T22:19:02.619Z,99671.77
2022-08-27T22:21:34.847Z,99672.21
2022-08-27T22:24:07.723Z,99666.23
2022-08-27T22:26:40.008Z,99667.67
2022-08-27T22:29:12.191Z,99668.11
2022-08-27T22:31:44.437Z,99668.89
2022-08-27T22:34:17.595Z,99667.64
2022-08-27T22:36:50.026Z,99667.25
2022-08-27T22:39:22.259Z,99667.56
2022-08-27T22:41:57.852Z,99665.72
2022-08-27T22:44:31.470Z,99667.80
2022-08-27T22:47:03.792Z,99667.64
2022-08-27T22:49:35.938Z,99664.37
2022-08-27T22:52:08.379Z,99662.22
2022-08-27T22:54:40.417Z,99659.41
2022-08-27T22:57:12.988Z,99661.34
2022-08-27T22:59:45.025Z,99657.23
2022-08-27T23:02:17.424Z,99662.02
2022-08-27T23:04:56.908Z,99659.80
2022-08-27T23:07:29.536Z,99660.42
2022-08-27T23:10:02.053Z,99654.81
2022-08-27T23:12:37.795Z,99655.09
2022-08-27T23:15:13.765Z,99649.73
2022-08-27T23:17:45.926Z,99653.35
2022-08-27T23:20:21.538Z,99654.85
2022-08-27T23:22:55.171Z,99656.48
2022-08-27T23:25:47.018Z,99652.55
2022-08-27T23:28:19.429Z,99650.09
2022-08-27T23:30:51.918Z,99652.66
2022-08-27T23:33:24.127Z,99649.54
2022-08-27T23:35:56.273Z,99649.08
2022-08-27T23:38:28.527Z,99646.13
2022-08-27T23:41:00.915Z,99648.71
2022-08-27T23:43:33.346Z,99645.77
2022-08-27T23:46:05.701Z,99645.56
2022-08-27T23:48:39.472Z,99641.80
2022-08-27T23:51:12.108Z,99642.79
2022-08-27T23:53:44.202Z,99643.30
2022-08-27T23:56:16.283Z,99645.32
2022-08-27T23:58:49.052Z,99643.99
